Terminal Aerodrome Forecast
Issued by NWS

Home | Current Version | Previous Version | Text Only | Print | Product List | Glossary On
Versions: 1 2 3 4 5 6 7 8 9 10 11 12 13 14 15 16
000
FTUS44 KJAN 292107 AAA
TAFGTR
TAF AMD
KGTR 292107Z 2921/3018 VRB06KT 6SM -TSRA SCT025 BKN050CB
     FM292200 VRB05KT P6SM FEW030 SCT050 BKN150
     FM300200 34003KT P6SM SCT150=

USA.gov is the U.S. government's official web portal to all federal, state and local government web resources and services.